KFRI/FRI METAR and TAF weather

Enter ICAO airport designator
Station Type Date Time Source
KFRI METAR 2019/08/25 06:39 UTC NOAA

KFRI 250639Z 15012KT 10SM VCTS CLR 19/17 A2990 RMK AO2A RAE20RAB25E38 TSE01TSB24E39 SLP117


Station Type Date Time Source
KFRI Decoded METAR 2019/08/25 06:39 UTC NOAA

Station name not available
Aug 25, 2019 - 02:39 AM EDT / 2019.08.25 0639 UTC
Wind: from the SSE (150 degrees) at 14 MPH (12 KT):0
Visibility: 10 mile(s):0
Sky conditions: clear
Weather: thunder in the vicinity
Temperature: 66 F (19 C)
Dew Point: 62 F (17 C)
Relative Humidity: 88%
Pressure (altimeter): 29.9 in. Hg (1012 hPa)
ob: KFRI 250639Z 15012KT 10SM VCTS CLR 19/17 A2990 RMK AO2A RAE20RAB25E38 TSE01TSB24E39 SLP117
cycle: 6

Station Type Date Time Source
KFRI TAF 2019/08/23 18:12 UTC NOAA

TAF
AMD KFRI 231805Z 2318/2419 10008KT 9999 BKN030 QNH2995INS
BECMG 2320/2321 10012G18KT 9999 FEW050 QNH2994INS
BECMG 2323/2324 10009KT 9999 SCT050 QNH3003INS
BECMG 2405/2406 11006KT 9999 BKN020 QNH3002INS
BECMG 2411/2412 10006KT 9999 BKN010 QNH3004INS
BECMG 2413/2414 09006KT 9999 FEW020 QNH3006INS TX28/2321Z TN21/2413Z LAST NO
AMDS AFT 2321 NEXT 2605

Example: see airport list